createdAt,value
2019-03-26T00:00:08.279Z,5.92
2019-03-26T00:02:36.480Z,5.90
2019-03-26T00:05:05.184Z,6.03
2019-03-26T00:07:33.389Z,5.85
2019-03-26T00:10:01.600Z,6.12
2019-03-26T00:12:29.806Z,5.72
2019-03-26T00:14:58.023Z,5.42
2019-03-26T00:17:26.231Z,5.60
2019-03-26T00:19:54.445Z,5.90
2019-03-26T00:22:22.657Z,5.00
2019-03-26T00:24:50.871Z,5.33
2019-03-26T00:27:19.081Z,5.23
2019-03-26T00:29:47.291Z,4.90
2019-03-26T00:32:15.515Z,4.72
2019-03-26T00:34:43.707Z,6.20
2019-03-26T00:37:11.992Z,4.92
2019-03-26T00:39:40.206Z,4.60
2019-03-26T00:42:08.417Z,5.03
2019-03-26T00:44:36.629Z,5.00
2019-03-26T00:47:04.840Z,5.03
2019-03-26T00:49:33.057Z,4.92
2019-03-26T00:52:01.289Z,5.53
2019-03-26T00:54:29.499Z,4.97
2019-03-26T00:56:57.716Z,4.50
2019-03-26T00:59:25.929Z,4.87
2019-03-26T01:01:54.217Z,4.87
2019-03-26T01:04:32.206Z,5.35
2019-03-26T01:06:52.332Z,4.10
2019-03-26T01:09:20.546Z,4.65
2019-03-26T01:11:48.757Z,4.53
2019-03-26T01:14:16.975Z,5.03
2019-03-26T01:16:45.187Z,5.70
2019-03-26T01:19:13.399Z,5.08
2019-03-26T01:21:42.351Z,5.78
2019-03-26T01:24:10.558Z,6.67
2019-03-26T01:26:38.783Z,5.65
2019-03-26T01:29:07.030Z,5.30
2019-03-26T01:31:35.239Z,5.20
2019-03-26T01:34:03.439Z,4.97
2019-03-26T01:36:31.656Z,5.70
2019-03-26T01:38:59.857Z,5.42
2019-03-26T01:41:28.077Z,5.60
2019-03-26T01:43:56.286Z,5.75
2019-03-26T01:46:24.508Z,4.90
2019-03-26T01:48:52.776Z,5.97
2019-03-26T01:51:20.950Z,5.47
2019-03-26T01:53:49.151Z,5.63
2019-03-26T01:56:17.376Z,5.88
2019-03-26T01:58:45.583Z,5.77
2019-03-26T02:01:13.801Z,6.85
2019-03-26T02:03:42.576Z,6.35
2019-03-26T02:06:10.802Z,6.08
2019-03-26T02:08:39.014Z,5.67
2019-03-26T02:11:07.245Z,5.60
2019-03-26T02:13:36.517Z,6.33
2019-03-26T02:16:04.726Z,7.07
2019-03-26T02:18:32.933Z,6.45
2019-03-26T02:21:01.144Z,5.90
2019-03-26T02:23:29.347Z,5.60
2019-03-26T02:25:57.565Z,5.90
2019-03-26T02:28:25.784Z,6.30
2019-03-26T02:30:54.031Z,5.62
2019-03-26T02:33:22.255Z,6.67
2019-03-26T02:35:50.462Z,5.75
2019-03-26T02:38:18.665Z,6.25
2019-03-26T02:40:46.916Z,6.50
2019-03-26T02:43:15.117Z,6.05
2019-03-26T02:45:43.348Z,5.95
2019-03-26T02:48:11.552Z,6.03
2019-03-26T02:50:39.775Z,6.00
2019-03-26T02:53:09.019Z,6.58
2019-03-26T02:55:37.302Z,5.78
2019-03-26T02:58:05.515Z,5.92
2019-03-26T03:00:33.733Z,5.83
2019-03-26T03:03:01.993Z,5.17
2019-03-26T03:05:35.871Z,6.05
2019-03-26T03:08:00.102Z,6.07
2019-03-26T03:10:28.331Z,4.92
2019-03-26T03:12:58.108Z,6.20
2019-03-26T03:15:26.331Z,5.70
2019-03-26T03:17:54.543Z,5.80
2019-03-26T03:20:22.755Z,5.97
2019-03-26T03:22:50.970Z,5.37
2019-03-26T03:25:19.210Z,5.70
2019-03-26T03:27:47.416Z,5.83
2019-03-26T03:30:15.625Z,6.45
2019-03-26T03:32:43.838Z,5.92
2019-03-26T03:35:12.067Z,6.00
2019-03-26T03:37:40.259Z,5.80
2019-03-26T03:40:09.270Z,5.55
2019-03-26T03:42:37.477Z,5.60
2019-03-26T03:45:08.231Z,5.92
2019-03-26T03:47:36.444Z,5.65
2019-03-26T03:50:06.299Z,5.83
2019-03-26T03:52:39.770Z,5.87
2019-03-26T03:55:07.981Z,5.42
2019-03-26T03:57:38.040Z,6.22
2019-03-26T04:00:09.500Z,5.87
2019-03-26T04:02:37.714Z,5.78
2019-03-26T04:05:06.606Z,6.22
2019-03-26T04:07:34.847Z,5.58
2019-03-26T04:10:03.326Z,5.85
2019-03-26T04:12:31.558Z,6.60
2019-03-26T04:14:59.773Z,5.03
2019-03-26T04:17:27.985Z,5.25
2019-03-26T04:19:56.234Z,5.50
2019-03-26T04:22:24.517Z,6.12
2019-03-26T04:24:52.722Z,5.92
2019-03-26T04:27:20.960Z,6.08
2019-03-26T04:29:49.183Z,5.90
2019-03-26T04:32:17.391Z,5.78
2019-03-26T04:34:45.602Z,5.80
2019-03-26T04:37:13.821Z,6.15
2019-03-26T04:39:42.029Z,5.58
2019-03-26T04:42:10.243Z,5.90
2019-03-26T04:44:38.456Z,5.85
2019-03-26T04:47:06.671Z,5.80
2019-03-26T04:49:34.910Z,6.15
2019-03-26T04:52:03.118Z,5.72
2019-03-26T04:54:31.328Z,6.58
2019-03-26T04:56:59.575Z,5.08
2019-03-26T04:59:27.793Z,5.67
2019-03-26T05:01:56.020Z,5.03
2019-03-26T05:04:24.285Z,5.95
2019-03-26T05:06:52.512Z,5.35
2019-03-26T05:09:20.808Z,5.47
2019-03-26T05:11:49.041Z,5.20
2019-03-26T05:14:17.247Z,5.22
2019-03-26T05:16:45.476Z,4.70
2019-03-26T05:19:13.822Z,5.08
2019-03-26T05:21:42.045Z,4.85
2019-03-26T05:24:10.263Z,4.87
2019-03-26T05:26:38.954Z,4.90
2019-03-26T05:29:07.195Z,5.15
2019-03-26T05:31:35.404Z,5.12
2019-03-26T05:34:03.658Z,5.55
2019-03-26T05:36:31.907Z,6.43
2019-03-26T05:39:00.074Z,5.30
2019-03-26T05:41:28.302Z,5.83
2019-03-26T05:43:56.523Z,5.60
2019-03-26T05:46:24.763Z,5.42
2019-03-26T05:48:52.980Z,4.90
2019-03-26T05:51:21.190Z,4.67
2019-03-26T05:53:49.415Z,4.90
2019-03-26T05:56:17.634Z,5.60
2019-03-26T05:58:45.889Z,4.70
2019-03-26T06:01:14.270Z,5.53
2019-03-26T06:03:42.512Z,4.60
2019-03-26T06:06:10.724Z,5.50
2019-03-26T06:08:38.957Z,4.72
2019-03-26T06:11:07.162Z,4.35
2019-03-26T06:13:35.383Z,4.62
2019-03-26T06:16:03.588Z,4.72
2019-03-26T06:18:31.836Z,4.78
2019-03-26T06:21:00.054Z,5.10
2019-03-26T06:23:28.263Z,4.92
2019-03-26T06:25:56.474Z,4.45
2019-03-26T06:28:24.686Z,4.42
2019-03-26T06:30:53.061Z,5.00
2019-03-26T06:33:21.291Z,4.87
2019-03-26T06:35:49.512Z,4.65
2019-03-26T06:38:17.734Z,4.87
2019-03-26T06:40:45.952Z,4.97
2019-03-26T06:43:14.486Z,5.33
2019-03-26T06:45:42.687Z,4.75
2019-03-26T06:48:10.936Z,5.55
2019-03-26T06:50:39.166Z,6.45
2019-03-26T06:53:07.378Z,5.15
2019-03-26T06:55:35.597Z,5.85
2019-03-26T06:58:03.853Z,6.20
2019-03-26T07:00:33.088Z,5.67
2019-03-26T07:03:02.240Z,5.67
2019-03-26T07:05:30.476Z,5.42
2019-03-26T07:07:58.683Z,6.42
2019-03-26T07:10:28.350Z,4.85
2019-03-26T07:12:57.402Z,5.20
2019-03-26T07:15:25.647Z,6.23
2019-03-26T07:17:53.893Z,4.92
2019-03-26T07:20:22.104Z,5.40
2019-03-26T07:22:50.332Z,5.20
2019-03-26T07:25:19.217Z,5.08
2019-03-26T07:27:47.441Z,5.50
2019-03-26T07:30:24.522Z,5.53
2019-03-26T07:32:52.750Z,5.10
2019-03-26T07:35:20.958Z,5.85
2019-03-26T07:37:49.177Z,5.45
2019-03-26T07:40:17.405Z,5.33
2019-03-26T07:42:45.630Z,5.55
2019-03-26T07:45:14.842Z,5.33
2019-03-26T07:47:43.051Z,5.62
2019-03-26T07:50:13.933Z,5.05
2019-03-26T07:52:41.235Z,5.83
2019-03-26T07:55:09.445Z,5.17
2019-03-26T07:57:37.666Z,6.08
2019-03-26T08:00:08.113Z,4.90
2019-03-26T08:02:36.336Z,5.40
2019-03-26T08:05:06.812Z,4.92
2019-03-26T08:10:03.105Z,5.78
2019-03-26T08:12:32.829Z,5.15
2019-03-26T08:15:01.430Z,6.07
2019-03-26T08:17:29.605Z,4.97
2019-03-26T08:19:57.833Z,4.80
2019-03-26T08:22:26.052Z,5.30
2019-03-26T08:24:54.262Z,5.72
2019-03-26T08:27:22.487Z,5.05
2019-03-26T08:29:50.710Z,5.33
2019-03-26T08:32:18.922Z,7.78
2019-03-26T08:34:47.179Z,6.12
2019-03-26T08:37:15.451Z,5.37
2019-03-26T08:39:43.691Z,5.78
2019-03-26T08:42:11.923Z,5.25
2019-03-26T08:44:40.137Z,5.53
2019-03-26T08:47:08.391Z,5.22
2019-03-26T08:49:36.612Z,4.53
2019-03-26T08:52:04.829Z,4.85
2019-03-26T08:54:33.080Z,4.10
2019-03-26T08:57:01.290Z,4.70
2019-03-26T08:59:29.516Z,4.35
2019-03-26T09:01:57.721Z,4.40
2019-03-26T09:04:27.038Z,4.33
2019-03-26T09:06:55.363Z,5.08
2019-03-26T09:09:23.617Z,4.85
2019-03-26T09:11:52.024Z,4.87
2019-03-26T09:14:20.238Z,4.90
2019-03-26T09:16:48.458Z,4.50
2019-03-26T09:19:16.665Z,4.65
2019-03-26T09:21:45.486Z,4.84
2019-03-26T09:24:13.722Z,5.05
2019-03-26T09:26:41.932Z,5.35
2019-03-26T09:29:10.143Z,5.00
2019-03-26T09:31:38.999Z,4.60
2019-03-26T09:34:09.910Z,4.80
2019-03-26T09:36:37.576Z,4.50
2019-03-26T09:39:05.863Z,4.75
2019-03-26T09:41:34.131Z,5.40
2019-03-26T09:44:02.380Z,5.10
2019-03-26T09:46:30.561Z,4.13
2019-03-26T09:48:58.790Z,4.55
2019-03-26T09:51:27.008Z,4.42
2019-03-26T09:53:56.018Z,4.40
2019-03-26T09:56:30.598Z,4.80
2019-03-26T09:58:54.168Z,4.75
2019-03-26T10:01:22.405Z,4.70
2019-03-26T10:03:50.623Z,4.45
2019-03-26T10:06:23.739Z,4.33
2019-03-26T10:08:52.632Z,3.83
2019-03-26T10:11:18.725Z,4.73
2019-03-26T10:13:46.952Z,4.35
2019-03-26T10:16:15.694Z,4.97
2019-03-26T10:18:43.954Z,4.40
2019-03-26T10:21:12.173Z,4.72
2019-03-26T10:23:40.423Z,4.97
2019-03-26T10:26:08.662Z,4.87
2019-03-26T10:28:36.895Z,4.70
2019-03-26T10:31:05.115Z,5.20
2019-03-26T10:33:33.376Z,5.37
2019-03-26T10:36:01.546Z,5.03
2019-03-26T10:38:29.762Z,5.20
2019-03-26T10:40:58.017Z,4.72
2019-03-26T10:43:26.798Z,4.78
2019-03-26T10:45:55.040Z,5.03
2019-03-26T10:48:23.276Z,4.95
2019-03-26T10:50:51.501Z,4.80
2019-03-26T10:53:19.723Z,4.60
2019-03-26T10:55:47.938Z,4.77
2019-03-26T10:58:16.191Z,4.95
2019-03-26T11:00:44.406Z,4.72
2019-03-26T11:03:12.637Z,4.12
2019-03-26T11:05:40.892Z,4.22
2019-03-26T11:08:09.123Z,4.80
2019-03-26T11:10:37.348Z,4.12
2019-03-26T11:13:05.573Z,3.85
2019-03-26T11:15:33.773Z,3.87
2019-03-26T11:18:02.002Z,4.05
2019-03-26T11:20:30.208Z,3.60
2019-03-26T11:22:58.430Z,3.80
2019-03-26T11:25:26.646Z,4.08
2019-03-26T11:27:54.870Z,4.00
2019-03-26T11:30:23.071Z,3.80
2019-03-26T11:32:51.284Z,4.00
2019-03-26T11:35:19.489Z,4.10
2019-03-26T11:37:47.722Z,4.25
2019-03-26T11:40:16.179Z,4.62
2019-03-26T11:42:44.420Z,4.42
2019-03-26T11:45:12.644Z,4.00
2019-03-26T11:47:40.883Z,4.50
2019-03-26T11:50:10.182Z,4.30
2019-03-26T11:52:39.327Z,4.53
2019-03-26T11:55:09.086Z,4.05
2019-03-26T11:57:37.303Z,4.27
2019-03-26T12:00:11.149Z,4.55
2019-03-26T12:02:39.381Z,4.85
2019-03-26T12:05:08.094Z,3.67
2019-03-26T12:07:37.048Z,4.50
2019-03-26T12:10:07.578Z,4.37
2019-03-26T12:12:35.827Z,4.40
2019-03-26T12:15:06.165Z,4.20
2019-03-26T12:17:34.378Z,3.70
2019-03-26T12:20:02.591Z,3.85
2019-03-26T12:22:31.529Z,3.72
2019-03-26T12:25:00.007Z,3.58
2019-03-26T12:27:28.240Z,3.58
2019-03-26T12:29:56.440Z,3.40
2019-03-26T12:32:24.668Z,3.70
2019-03-26T12:34:52.886Z,3.30
2019-03-26T12:37:21.124Z,3.50
2019-03-26T12:39:58.956Z,3.40
2019-03-26T12:42:19.328Z,3.50
2019-03-26T12:44:47.532Z,3.30
2019-03-26T12:47:16.426Z,3.30
2019-03-26T12:49:44.626Z,3.10
2019-03-26T12:52:12.843Z,3.50
2019-03-26T12:54:41.059Z,3.45
2019-03-26T12:57:09.259Z,3.77
2019-03-26T12:59:37.485Z,3.80
2019-03-26T13:02:05.691Z,3.80
2019-03-26T13:04:33.904Z,3.70
2019-03-26T13:07:02.121Z,3.73
2019-03-26T13:09:30.337Z,3.27
2019-03-26T13:11:58.578Z,3.80
2019-03-26T13:14:26.801Z,3.70
2019-03-26T13:16:55.004Z,3.50
2019-03-26T13:19:23.225Z,4.00
2019-03-26T13:21:51.436Z,3.90
2019-03-26T13:24:19.648Z,4.05
2019-03-26T13:26:49.149Z,3.80
2019-03-26T13:29:17.359Z,3.85
2019-03-26T13:31:46.628Z,3.90
2019-03-26T13:34:14.878Z,3.72
2019-03-26T13:36:43.094Z,4.20
2019-03-26T13:39:11.313Z,4.25
2019-03-26T13:41:39.561Z,4.00
2019-03-26T13:44:07.760Z,4.45
2019-03-26T13:46:35.998Z,3.62
2019-03-26T13:49:04.225Z,4.05
2019-03-26T13:51:32.446Z,4.22
2019-03-26T13:54:00.662Z,4.03
2019-03-26T13:56:28.946Z,4.22
2019-03-26T13:58:57.105Z,4.10
2019-03-26T14:01:25.359Z,3.80
2019-03-26T14:03:53.570Z,4.28
2019-03-26T14:06:21.781Z,3.97
2019-03-26T14:08:50.006Z,3.45
2019-03-26T14:11:18.212Z,4.53
2019-03-26T14:13:46.877Z,4.10
2019-03-26T14:16:15.097Z,4.00
2019-03-26T14:18:43.309Z,3.95
2019-03-26T14:21:11.517Z,3.70
2019-03-26T14:23:39.769Z,4.15
2019-03-26T14:26:07.988Z,4.60
2019-03-26T14:28:36.256Z,4.10
2019-03-26T14:31:04.463Z,3.95
2019-03-26T14:33:32.701Z,4.03
2019-03-26T14:36:00.947Z,4.50
2019-03-26T14:38:29.162Z,4.53
2019-03-26T14:40:57.404Z,4.22
2019-03-26T14:43:25.617Z,4.62
2019-03-26T14:45:53.830Z,4.70
2019-03-26T14:48:22.046Z,4.77
2019-03-26T14:50:50.298Z,4.25
2019-03-26T14:53:18.519Z,4.45
2019-03-26T14:55:47.102Z,4.17
2019-03-26T14:58:15.321Z,4.58
2019-03-26T15:00:43.537Z,4.60
2019-03-26T15:03:11.786Z,4.45
2019-03-26T15:05:40.024Z,4.22
2019-03-26T15:08:08.261Z,4.65
2019-03-26T15:10:36.477Z,4.20
2019-03-26T15:13:04.696Z,4.33
2019-03-26T15:15:36.373Z,4.20
2019-03-26T15:18:02.853Z,4.28
2019-03-26T15:20:31.076Z,4.17
2019-03-26T15:22:59.291Z,3.77
2019-03-26T15:25:27.521Z,4.03
2019-03-26T15:27:55.759Z,3.80
2019-03-26T15:30:23.965Z,3.22
2019-03-26T15:32:52.214Z,3.20
2019-03-26T15:35:20.435Z,3.15
2019-03-26T15:37:48.645Z,3.40
2019-03-26T15:40:17.311Z,2.90
2019-03-26T15:42:45.548Z,3.05
2019-03-26T15:45:13.772Z,3.10
2019-03-26T15:47:41.968Z,3.08
2019-03-26T15:50:10.177Z,2.92
2019-03-26T15:52:38.386Z,2.97
2019-03-26T15:55:06.602Z,3.37
2019-03-26T15:57:34.822Z,3.10
2019-03-26T16:00:04.652Z,2.80
2019-03-26T16:02:32.885Z,3.00
2019-03-26T16:05:01.107Z,2.90
2019-03-26T16:07:29.311Z,2.90
2019-03-26T16:09:57.535Z,3.00
2019-03-26T16:12:25.733Z,4.28
2019-03-26T16:14:53.943Z,4.20
2019-03-26T16:17:22.158Z,4.50
2019-03-26T16:19:50.355Z,4.12
2019-03-26T16:22:18.578Z,4.40
2019-03-26T16:24:47.526Z,4.50
2019-03-26T16:27:15.808Z,4.58
2019-03-26T16:29:44.015Z,4.60
2019-03-26T16:32:12.233Z,4.40
2019-03-26T16:34:40.461Z,4.60
2019-03-26T16:37:08.678Z,4.67
2019-03-26T16:39:36.877Z,4.70
2019-03-26T16:42:05.088Z,4.53
2019-03-26T16:44:33.297Z,6.80
2019-03-26T16:47:01.508Z,6.30
2019-03-26T16:49:29.719Z,6.10
2019-03-26T16:51:57.928Z,5.73
2019-03-26T16:54:26.197Z,6.10
2019-03-26T16:56:54.351Z,5.77
2019-03-26T16:59:22.561Z,5.87
2019-03-26T17:01:50.776Z,6.13
2019-03-26T17:04:18.980Z,5.87
2019-03-26T17:06:47.189Z,5.97
2019-03-26T17:09:15.402Z,6.15
2019-03-26T17:11:43.610Z,8.23
2019-03-26T17:14:11.833Z,6.22
2019-03-26T17:16:40.067Z,6.50
2019-03-26T17:19:08.286Z,6.35
2019-03-26T17:21:36.506Z,6.22
2019-03-26T17:24:04.706Z,5.83
2019-03-26T17:26:32.905Z,6.30
2019-03-26T17:29:01.113Z,6.75
2019-03-26T17:31:29.340Z,6.67
2019-03-26T17:33:57.579Z,6.30
2019-03-26T17:36:25.788Z,6.60
2019-03-26T17:38:53.997Z,6.55
2019-03-26T17:41:22.210Z,6.40
2019-03-26T17:43:50.404Z,6.78
2019-03-26T17:46:18.606Z,6.78
2019-03-26T17:48:46.819Z,6.15
2019-03-26T17:51:15.013Z,6.62
2019-03-26T17:53:43.217Z,6.05
2019-03-26T17:56:11.423Z,6.10
2019-03-26T17:58:39.680Z,6.03
2019-03-26T18:01:07.911Z,6.40
2019-03-26T18:03:36.093Z,6.10
2019-03-26T18:06:04.367Z,5.33
2019-03-26T18:08:32.583Z,4.70
2019-03-26T18:11:00.791Z,5.55
2019-03-26T18:13:29.889Z,4.80
2019-03-26T18:15:58.094Z,5.12
2019-03-26T18:18:26.299Z,5.47
2019-03-26T18:20:54.506Z,5.42
2019-03-26T18:23:22.735Z,5.95
2019-03-26T18:25:51.019Z,5.95
2019-03-26T18:28:19.239Z,6.10
2019-03-26T18:30:47.451Z,6.03
2019-03-26T18:33:15.685Z,6.12
2019-03-26T18:35:43.917Z,5.28
2019-03-26T18:38:14.765Z,7.00
2019-03-26T18:40:42.323Z,5.72
2019-03-26T18:43:10.550Z,6.05
2019-03-26T18:45:38.764Z,5.50
2019-03-26T18:48:07.014Z,7.60
2019-03-26T18:50:35.213Z,7.85
2019-03-26T18:53:03.558Z,9.03
2019-03-26T18:55:31.784Z,7.78
2019-03-26T18:57:59.990Z,8.50
2019-03-26T19:00:37.850Z,9.28
2019-03-26T19:03:06.122Z,9.78
2019-03-26T19:05:34.344Z,9.28
2019-03-26T19:08:02.562Z,8.30
2019-03-26T19:10:34.936Z,9.25
2019-03-26T19:13:03.229Z,8.23
2019-03-26T19:15:31.445Z,9.90
2019-03-26T19:17:59.739Z,10.15
2019-03-26T19:20:27.963Z,9.08
2019-03-26T19:22:56.216Z,7.95
2019-03-26T19:25:24.463Z,8.58
2019-03-26T19:27:52.691Z,8.03
2019-03-26T19:30:20.903Z,8.30
2019-03-26T19:32:49.130Z,7.90
2019-03-26T19:35:17.376Z,8.83
2019-03-26T19:37:45.598Z,8.35
2019-03-26T19:40:13.816Z,8.63
2019-03-26T19:42:42.031Z,7.97
2019-03-26T19:45:10.238Z,8.18
2019-03-26T19:47:38.470Z,7.63
2019-03-26T19:50:07.824Z,7.72
2019-03-26T19:52:36.032Z,7.47
2019-03-26T19:55:05.686Z,7.92
2019-03-26T19:57:33.887Z,7.85
2019-03-26T20:00:02.221Z,8.03
2019-03-26T20:02:30.430Z,7.00
2019-03-26T20:04:58.648Z,7.92
2019-03-26T20:07:26.864Z,7.65
2019-03-26T20:09:55.072Z,7.92
2019-03-26T20:12:23.298Z,8.40
2019-03-26T20:14:51.511Z,7.45
2019-03-26T20:17:19.721Z,8.03
2019-03-26T20:19:47.938Z,7.92
2019-03-26T20:22:16.147Z,7.47
2019-03-26T20:24:44.371Z,7.67
2019-03-26T20:27:12.578Z,7.25
2019-03-26T20:29:40.798Z,7.00
2019-03-26T20:32:09.006Z,7.28
2019-03-26T20:34:37.303Z,7.30
2019-03-26T20:37:05.522Z,7.58
2019-03-26T20:39:33.738Z,7.78
2019-03-26T20:42:01.958Z,7.55
2019-03-26T20:44:30.162Z,7.62
2019-03-26T20:46:58.399Z,7.42
2019-03-26T20:49:26.634Z,7.87
2019-03-26T20:51:54.852Z,7.70
2019-03-26T20:54:23.084Z,7.85
2019-03-26T20:56:51.313Z,7.58
2019-03-26T20:59:19.598Z,7.08
2019-03-26T21:01:47.808Z,8.13
2019-03-26T21:04:16.031Z,7.58
2019-03-26T21:06:44.248Z,7.60
2019-03-26T21:09:12.457Z,7.60
2019-03-26T21:11:40.718Z,7.30
2019-03-26T21:14:08.931Z,7.85
2019-03-26T21:16:37.153Z,7.58
2019-03-26T21:19:05.365Z,6.72
2019-03-26T21:21:33.619Z,7.55
2019-03-26T21:24:01.833Z,7.03
2019-03-26T21:26:30.040Z,7.62
2019-03-26T21:28:58.369Z,7.30
2019-03-26T21:31:26.610Z,7.08
2019-03-26T21:33:54.849Z,6.25
2019-03-26T21:36:24.244Z,8.33
2019-03-26T21:38:52.456Z,6.90
2019-03-26T21:41:20.669Z,6.65
2019-03-26T21:43:48.891Z,6.72
2019-03-26T21:46:17.108Z,7.08
2019-03-26T21:48:45.817Z,6.20
2019-03-26T21:51:14.016Z,6.95
2019-03-26T21:53:42.256Z,7.80
2019-03-26T21:56:10.492Z,6.92
2019-03-26T21:58:38.708Z,7.73
2019-03-26T22:01:07.045Z,6.78
2019-03-26T22:03:35.298Z,6.50
2019-03-26T22:06:03.456Z,6.08
2019-03-26T22:08:31.662Z,6.10
2019-03-26T22:10:59.876Z,6.70
2019-03-26T22:13:28.364Z,7.00
2019-03-26T22:15:56.568Z,6.28
2019-03-26T22:18:24.786Z,6.83
2019-03-26T22:20:53.010Z,6.58
2019-03-26T22:23:21.220Z,7.10
2019-03-26T22:25:49.431Z,7.37
2019-03-26T22:28:17.661Z,6.10
2019-03-26T22:30:45.878Z,6.90
2019-03-26T22:33:14.090Z,6.50
2019-03-26T22:35:42.324Z,6.85
2019-03-26T22:38:10.550Z,6.95
2019-03-26T22:40:38.781Z,7.00
2019-03-26T22:43:06.994Z,5.97
2019-03-26T22:45:35.275Z,6.70
2019-03-26T22:48:03.559Z,6.92
2019-03-26T22:50:31.767Z,6.72
2019-03-26T22:52:59.970Z,6.37
2019-03-26T22:55:28.190Z,7.15
2019-03-26T22:57:56.404Z,7.17
2019-03-26T23:00:25.688Z,6.30
2019-03-26T23:02:53.899Z,6.37
2019-03-26T23:05:22.111Z,6.75
2019-03-26T23:07:50.326Z,6.30
2019-03-26T23:10:18.547Z,6.83
2019-03-26T23:12:46.839Z,6.00
2019-03-26T23:15:23.019Z,6.80
2019-03-26T23:17:51.225Z,6.25
2019-03-26T23:20:19.490Z,6.15
2019-03-26T23:22:47.681Z,5.72
2019-03-26T23:25:15.883Z,5.45
2019-03-26T23:27:44.098Z,6.10
2019-03-26T23:30:12.311Z,6.33
2019-03-26T23:32:40.524Z,5.92
2019-03-26T23:35:08.751Z,5.58
2019-03-26T23:37:36.958Z,5.17
2019-03-26T23:40:05.466Z,6.20
2019-03-26T23:42:33.701Z,6.92
2019-03-26T23:45:01.918Z,6.75
2019-03-26T23:47:30.133Z,6.42
2019-03-26T23:49:58.354Z,6.72
2019-03-26T23:52:26.584Z,7.20
2019-03-26T23:54:54.786Z,6.40
2019-03-26T23:57:23.015Z,6.87
2019-03-26T23:59:51.233Z,6.42
